Time;durP1;ratioP1;P1;durP2;ratioP2;P2;SDS_P1;SDS_P2;PMS_P1;PMS_P2;Temp;Humidity;BMP_temperature;BMP_pressure;BME280_temperature;BME280_humidity;BME280_pressure;Samples;Min_cycle;Max_cycle;Signal;HPM_P1;HPM_P2
2023/04/18 00:01:38;;;;;;;;;;;;;;;18.80;73.05;100638.19;7395541;19;1487;-52
2023/04/18 00:04:07;;;;;;;;;;;;;;;18.86;73.06;100643.00;7395579;19;1566;-51
2023/04/18 00:06:36;;;;;;;;;;;;;;;18.87;72.83;100626.78;7395666;19;1813;-52
2023/04/18 00:09:05;;;;;;;;;;;;;;;18.90;72.73;100632.84;7396059;19;1316;-52
2023/04/18 00:11:33;;;;;;;;;;;;;;;18.80;73.06;100648.91;7394872;19;1257;-52
2023/04/18 00:14:02;;;;;;;;;;;;;;;18.86;72.63;100640.31;7395539;19;1479;-51
2023/04/18 00:16:33;;;;;;;;;;;;;;;18.82;72.97;100628.19;7394224;19;2392;-52
2023/04/18 00:19:03;;;;;;;;;;;;;;;18.79;73.07;100615.03;7394319;19;1848;-51
2023/04/18 00:21:32;;;;;;;;;;;;;;;18.73;72.96;100620.97;7395842;19;1604;-52
2023/04/18 00:24:00;;;;;;;;;;;;;;;18.83;72.95;100638.78;7395154;19;1621;-52
2023/04/18 00:26:28;;;;;;;;;;;;;;;18.77;72.85;100615.19;7394498;19;1251;-52
2023/04/18 00:28:57;;;;;;;;;;;;;;;18.82;73.14;100626.38;7395337;19;1257;-51
2023/04/18 00:31:25;;;;;;;;;;;;;;;18.77;72.83;100617.84;7394594;19;1284;-52
2023/04/18 00:33:56;;;;;;;;;;;;;;;18.80;72.77;100627.47;7394275;19;1491;-51
2023/04/18 00:36:25;;;;;;;;;;;;;;;18.84;73.11;100634.25;7394979;19;1583;-52
2023/04/18 00:38:54;;;;;;;;;;;;;;;18.74;72.89;100628.00;7393059;19;1839;-52
2023/04/18 00:41:26;;;;;;;;;;;;;;;18.69;73.10;100613.19;7392761;19;1357;-52
2023/04/18 00:43:54;;;;;;;;;;;;;;;18.78;73.12;100616.03;7394458;19;1198;-52
2023/04/18 00:46:22;;;;;;;;;;;;;;;18.74;73.12;100622.63;7394788;19;1138;-52
2023/04/18 00:48:51;;;;;;;;;;;;;;;18.78;72.76;100606.19;7395615;19;1103;-51
2023/04/18 00:51:22;;;;;;;;;;;;;;;18.76;73.13;100601.91;7395357;19;1055;-52
2023/04/18 00:53:50;;;;;;;;;;;;;;;18.74;72.74;100611.91;7394850;19;1799;-52
2023/04/18 00:56:19;;;;;;;;;;;;;;;18.74;72.83;100611.91;7394551;19;1523;-52
2023/04/18 00:58:47;;;;;;;;;;;;;;;18.68;72.76;100605.28;7393011;19;1853;-52
2023/04/18 01:01:16;;;;;;;;;;;;;;;18.74;72.83;100601.22;7393657;19;1205;-52
2023/04/18 01:03:45;;;;;;;;;;;;;;;18.67;72.79;100587.53;7394634;19;1551;-52
2023/04/18 01:06:13;;;;;;;;;;;;;;;18.64;72.75;100596.69;7393900;19;1194;-52
2023/04/18 01:08:44;;;;;;;;;;;;;;;18.77;72.49;100592.91;7394381;19;1202;-51
2023/04/18 01:11:13;;;;;;;;;;;;;;;18.79;72.36;100615.03;7394357;19;1540;-52
2023/04/18 01:13:41;;;;;;;;;;;;;;;18.69;72.57;100594.44;7394253;19;1589;-52
2023/04/18 01:16:09;;;;;;;;;;;;;;;18.67;72.27;100604.44;7393515;19;1481;-53
2023/04/18 01:18:39;;;;;;;;;;;;;;;18.69;72.51;100598.94;7393008;19;1852;-52
2023/04/18 01:21:07;;;;;;;;;;;;;;;18.64;72.69;100603.84;7394117;19;1489;-51
2023/04/18 01:23:35;;;;;;;;;;;;;;;18.66;72.80;100586.69;7393717;19;1549;-52
2023/04/18 01:26:07;;;;;;;;;;;;;;;18.62;72.84;100587.94;7392408;19;2158;-52
2023/04/18 01:28:37;;;;;;;;;;;;;;;18.67;72.30;100585.69;7393941;19;1649;-52
2023/04/18 01:31:06;;;;;;;;;;;;;;;18.72;72.55;100592.47;7393939;19;1400;-52
2023/04/18 01:33:34;;;;;;;;;;;;;;;18.58;72.62;100591.88;7394728;19;1649;-51
2023/04/18 01:36:02;;;;;;;;;;;;;;;18.64;72.73;100596.69;7393193;19;1198;-51
2023/04/18 01:38:31;;;;;;;;;;;;;;;18.64;72.86;100585.97;7393285;19;1853;-52
2023/04/18 01:41:01;;;;;;;;;;;;;;;18.64;72.70;100595.81;7392626;19;1854;-52
2023/04/18 01:43:31;;;;;;;;;;;;;;;18.54;73.36;100584.25;7392941;19;1577;-52
2023/04/18 01:46:00;;;;;;;;;;;;;;;19.00;72.03;100581.00;7393097;19;1596;-52
2023/04/18 01:48:28;;;;;;;;;;;;;;;19.65;70.30;100572.31;7393014;19;1123;-51
2023/04/18 01:50:56;;;;;;;;;;;;;;;20.33;68.42;100572.09;7392133;19;1954;-51
2023/04/18 01:53:25;;;;;;;;;;;;;;;20.57;67.55;100563.50;7393286;19;1502;-50
2023/04/18 01:55:53;;;;;;;;;;;;;;;20.71;67.64;100588.19;7400248;19;1435;-51
2023/04/18 01:58:22;;;;;;;;;;;;;;;20.73;67.25;100588.88;7398497;19;1846;-51
2023/04/18 02:00:56;;;;;;;;;;;;;;;20.77;67.15;100571.47;7399602;19;1261;-51
2023/04/18 02:03:24;;;;;;;;;;;;;;;20.66;67.46;100577.91;7401176;19;1107;-51
2023/04/18 02:05:53;;;;;;;;;;;;;;;20.58;67.79;100573.25;7400560;19;1861;-51
2023/04/18 02:08:21;;;;;;;;;;;;;;;20.46;68.27;100587.88;7399394;19;1483;-51
2023/04/18 02:10:49;;;;;;;;;;;;;;;20.45;68.24;100583.50;7399866;19;1506;-51
2023/04/18 02:13:18;;;;;;;;;;;;;;;20.42;68.56;100583.81;7399722;19;1957;-51
2023/04/18 02:15:46;;;;;;;;;;;;;;;20.56;68.00;100588.69;7399871;19;1556;-51
2023/04/18 02:18:17;;;;;;;;;;;;;;;20.66;67.73;100576.06;7398833;19;1879;-51
2023/04/18 02:20:46;;;;;;;;;;;;;;;20.82;67.50;100591.50;7399672;19;1561;-51
2023/04/18 02:23:14;;;;;;;;;;;;;;;20.92;67.29;100569.09;7398422;19;1270;-51
2023/04/18 02:25:42;;;;;;;;;;;;;;;20.95;67.12;100580.41;7399127;19;1545;-50
2023/04/18 02:28:10;;;;;;;;;;;;;;;20.96;66.97;100582.06;7397032;19;1483;-51
2023/04/18 02:30:39;;;;;;;;;;;;;;;20.82;67.26;100574.56;7399119;19;1218;-51
2023/04/18 02:33:07;;;;;;;;;;;;;;;20.83;67.53;100581.59;7398694;19;1554;-51
2023/04/18 02:35:38;;;;;;;;;;;;;;;20.75;67.65;100586.88;7400105;19;1493;-51
2023/04/18 02:38:07;;;;;;;;;;;;;;;20.74;67.63;100577.16;7398110;19;1850;-50
2023/04/18 02:40:35;;;;;;;;;;;;;;;20.68;67.91;100572.38;7398608;19;1940;-50
2023/04/18 02:43:04;;;;;;;;;;;;;;;20.71;67.89;100591.75;7398927;19;1550;-50
2023/04/18 02:45:32;;;;;;;;;;;;;;;20.70;68.15;100578.47;7398637;19;1966;-51
2023/04/18 02:48:00;;;;;;;;;;;;;;;20.70;68.11;100573.91;7398630;19;1517;-50
2023/04/18 02:50:28;;;;;;;;;;;;;;;20.70;67.86;100571.22;7397724;19;1474;-50
2023/04/18 02:52:59;;;;;;;;;;;;;;;20.78;67.70;100574.00;7397409;19;1854;-51
2023/04/18 02:55:28;;;;;;;;;;;;;;;20.74;67.96;100585.22;7398401;19;1490;-50
2023/04/18 02:57:56;;;;;;;;;;;;;;;20.74;67.77;100582.53;7398202;19;1864;-50
2023/04/18 03:00:24;;;;;;;;;;;;;;;20.76;67.68;100588.59;7397618;19;1491;-51
2023/04/18 03:02:53;;;;;;;;;;;;;;;20.71;67.98;100580.13;7399019;19;1031;-50
2023/04/18 03:05:21;;;;;;;;;;;;;;;20.76;67.74;100596.66;7397844;19;1561;-49
2023/04/18 03:07:49;;;;;;;;;;;;;;;20.74;67.87;100598.66;7397999;19;1560;-51
2023/04/18 03:10:20;;;;;;;;;;;;;;;20.76;67.92;100597.50;7397914;19;1431;-50
2023/04/18 03:12:49;;;;;;;;;;;;;;;20.80;67.81;100600.72;7398033;19;1640;-51
2023/04/18 03:15:17;;;;;;;;;;;;;;;20.74;67.84;100587.91;7397967;19;1652;-51
2023/04/18 03:17:45;;;;;;;;;;;;;;;20.74;67.78;100594.13;7397062;19;1549;-50
2023/04/18 03:20:14;;;;;;;;;;;;;;;20.80;67.67;100592.66;7397099;19;1483;-50
2023/04/18 03:22:42;;;;;;;;;;;;;;;20.84;67.74;100600.28;7395752;19;1328;-51
2023/04/18 03:25:10;;;;;;;;;;;;;;;20.92;67.45;100575.31;7397784;19;1546;-50
2023/04/18 03:27:42;;;;;;;;;;;;;;;20.86;67.49;100589.38;7395611;19;1280;-51
2023/04/18 03:30:12;;;;;;;;;;;;;;;20.79;67.75;100601.72;7396216;19;1071;-51
2023/04/18 03:32:41;;;;;;;;;;;;;;;20.78;68.21;100589.28;7397370;19;1123;-51
2023/04/18 03:35:09;;;;;;;;;;;;;;;20.78;68.20;100608.94;7396014;19;1554;-50
2023/04/18 03:37:38;;;;;;;;;;;;;;;20.73;68.16;100602.31;7395710;19;1348;-53
2023/04/18 03:40:07;;;;;;;;;;;;;;;20.74;68.24;100612.09;7395444;19;1867;-50
2023/04/18 03:42:35;;;;;;;;;;;;;;;20.71;68.50;100609.69;7396766;19;1245;-51
2023/04/18 03:45:06;;;;;;;;;;;;;;;20.71;68.36;100607.00;7396702;19;1497;-50
2023/04/18 03:47:35;;;;;;;;;;;;;;;20.74;68.65;100620.16;7395559;19;1460;-50
2023/04/18 03:50:03;;;;;;;;;;;;;;;20.79;68.27;100609.78;7396103;19;1466;-50
2023/04/18 03:52:31;;;;;;;;;;;;;;;20.89;67.91;100607.91;7396407;19;1479;-50
2023/04/18 03:54:59;;;;;;;;;;;;;;;20.96;67.95;100619.72;7396241;19;1592;-50
2023/04/18 03:57:28;;;;;;;;;;;;;;;20.95;67.77;100618.03;7395692;19;1518;-50
2023/04/18 03:59:56;;;;;;;;;;;;;;;20.83;68.01;100627.28;7393878;19;1855;-51
2023/04/18 04:02:27;;;;;;;;;;;;;;;20.36;69.50;100619.31;7395528;19;1119;-50
2023/04/18 04:04:55;;;;;;;;;;;;;;;20.26;69.95;100632.78;7395662;19;1580;-51
2023/04/18 04:07:24;;;;;;;;;;;;;;;20.12;70.14;100641.31;7395326;19;1486;-50
2023/04/18 04:09:52;;;;;;;;;;;;;;;19.92;70.54;100635.16;7395628;19;1616;-51
2023/04/18 04:12:20;;;;;;;;;;;;;;;19.71;70.96;100641.53;7395043;19;1466;-50
2023/04/18 04:14:48;;;;;;;;;;;;;;;19.71;70.77;100630.78;7395897;19;1669;-51
2023/04/18 04:17:17;;;;;;;;;;;;;;;19.66;71.23;100657.19;7392043;19;1206;-51
2023/04/18 04:19:47;;;;;;;;;;;;;;;19.53;71.20;100648.56;7393116;19;1841;-51
2023/04/18 04:22:16;;;;;;;;;;;;;;;19.42;72.41;100663.00;7395419;19;1126;-51
2023/04/18 04:24:46;;;;;;;;;;;;;;;19.89;70.43;100651.53;7396547;19;1032;-51
2023/04/18 04:27:17;;;;;;;;;;;;;;;20.15;69.56;100636.47;7392527;19;1388;-51
2023/04/18 04:29:45;;;;;;;;;;;;;;;20.19;69.42;100645.09;7393645;19;1455;-51
2023/04/18 04:32:15;;;;;;;;;;;;;;;20.02;70.15;100646.72;7392687;19;1194;-51
2023/04/18 04:34:45;;;;;;;;;;;;;;;19.97;69.95;100662.38;7391499;19;1196;-50
2023/04/18 04:37:17;;;;;;;;;;;;;;;19.74;70.72;100660.03;7393715;19;1299;-51
2023/04/18 04:39:46;;;;;;;;;;;;;;;19.95;70.69;100653.63;7392686;19;1852;-50
2023/04/18 04:42:14;;;;;;;;;;;;;;;20.16;70.17;100650.78;7393372;19;1265;-50
2023/04/18 04:44:42;;;;;;;;;;;;;;;20.25;69.52;100650.75;7393110;19;1458;-49
2023/04/18 04:47:11;;;;;;;;;;;;;;;20.34;69.66;100650.84;7390628;19;1270;-50
2023/04/18 04:49:39;;;;;;;;;;;;;;;20.35;69.50;100655.22;7394418;19;1549;-49
2023/04/18 04:52:07;;;;;;;;;;;;;;;20.35;69.30;100652.53;7391658;19;1273;-50
2023/04/18 04:54:38;;;;;;;;;;;;;;;20.39;69.23;100653.91;7389386;19;1275;-51
2023/04/18 04:57:06;;;;;;;;;;;;;;;20.42;68.84;100661.69;7388939;19;1395;-51
2023/04/18 04:59:35;;;;;;;;;;;;;;;20.45;68.74;100674.81;7390967;19;1858;-50
2023/04/18 05:02:03;;;;;;;;;;;;;;;20.46;68.52;100666.63;7391210;19;1882;-50
2023/04/18 05:04:31;;;;;;;;;;;;;;;20.55;68.41;100664.91;7391776;19;1616;-50
2023/04/18 05:07:00;;;;;;;;;;;;;;;20.61;68.08;100671.53;7391869;19;1268;-51
2023/04/18 05:09:28;;;;;;;;;;;;;;;20.36;69.11;100681.09;7389623;19;1448;-52
2023/04/18 05:12:00;;;;;;;;;;;;;;;20.18;69.53;100671.09;7383880;19;1532;-51
2023/04/18 05:14:29;;;;;;;;;;;;;;;19.90;70.67;100680.06;7389500;19;1407;-51
2023/04/18 05:16:58;;;;;;;;;;;;;;;19.84;70.84;100671.59;7390260;19;1477;-52
2023/04/18 05:19:26;;;;;;;;;;;;;;;19.60;71.93;100684.59;7384787;19;1855;-53
2023/04/18 05:21:55;;;;;;;;;;;;;;;19.61;71.50;100670.16;7392460;19;1546;-52
2023/04/18 05:24:23;;;;;;;;;;;;;;;19.67;70.49;100670.44;7390241;19;1383;-50
2023/04/18 05:26:51;;;;;;;;;;;;;;;19.61;70.86;100670.16;7389671;19;1256;-49
2023/04/18 05:29:22;;;;;;;;;;;;;;;19.59;71.51;100672.16;7335350;19;12662;-51
2023/04/18 05:31:51;;;;;;;;;;;;;;;19.56;71.62;100677.81;7397522;19;1449;-54
2023/04/18 05:34:19;;;;;;;;;;;;;;;19.56;71.16;100667.91;7399613;19;1159;-55
2023/04/18 05:36:48;;;;;;;;;;;;;;;19.61;71.65;100675.53;7398103;19;1532;-55
2023/04/18 05:39:16;;;;;;;;;;;;;;;19.65;71.42;100674.25;7396400;19;1853;-55
2023/04/18 05:41:44;;;;;;;;;;;;;;;19.52;71.95;100692.47;7399147;19;1486;-55
2023/04/18 05:44:13;;;;;;;;;;;;;;;20.02;70.77;100674.38;7398228;19;1528;-53
2023/04/18 05:46:44;;;;;;;;;;;;;;;20.57;69.15;100679.03;7398632;19;1489;-53
2023/04/18 05:49:12;;;;;;;;;;;;;;;20.91;68.21;100681.16;7397484;19;1446;-53
2023/04/18 05:51:41;;;;;;;;;;;;;;;20.91;68.27;100686.53;7398690;19;1461;-54
2023/04/18 05:54:12;;;;;;;;;;;;;;;21.24;67.57;100687.72;7396421;19;1112;-53
2023/04/18 05:56:40;;;;;;;;;;;;;;;21.28;67.60;100682.91;7396171;19;1516;-53
2023/04/18 05:59:09;;;;;;;;;;;;;;;21.26;67.63;100684.88;7396551;19;1863;-49
2023/04/18 06:01:37;;;;;;;;;;;;;;;21.23;68.02;100680.66;7397226;19;1379;-49
2023/04/18 06:04:08;;;;;;;;;;;;;;;21.28;68.05;100676.69;7397673;19;1493;-50
2023/04/18 06:06:36;;;;;;;;;;;;;;;21.30;68.05;100682.75;7396097;19;1165;-51
2023/04/18 06:09:05;;;;;;;;;;;;;;;21.54;67.72;100687.53;7397530;19;1630;-52
2023/04/18 06:11:34;;;;;;;;;;;;;;;21.01;69.25;100687.31;7397870;19;1231;-51
2023/04/18 06:14:02;;;;;;;;;;;;;;;20.57;70.18;100687.09;7398052;19;1292;-51
2023/04/18 06:16:31;;;;;;;;;;;;;;;20.37;70.47;100678.25;7395016;19;1826;-52
2023/04/18 06:19:01;;;;;;;;;;;;;;;20.11;71.07;100690.63;7396150;19;1847;-51
2023/04/18 06:21:32;;;;;;;;;;;;;;;19.76;70.12;100689.41;7396356;19;1149;-51
2023/04/18 06:24:00;;;;;;;;;;;;;;;19.64;71.19;100699.41;7397595;19;1500;-52
2023/04/18 06:26:29;;;;;;;;;;;;;;;19.65;69.43;100698.41;7394485;19;1242;-49
2023/04/18 06:28:57;;;;;;;;;;;;;;;19.72;69.97;100691.53;7395325;19;1701;-52
2023/04/18 06:31:25;;;;;;;;;;;;;;;19.66;69.06;100689.38;7391557;19;1461;-53
2023/04/18 06:33:54;;;;;;;;;;;;;;;19.84;68.87;100692.22;7389578;19;1626;-52
2023/04/18 06:36:23;;;;;;;;;;;;;;;19.96;69.07;100684.88;7389367;19;1437;-52
2023/04/18 06:38:53;;;;;;;;;;;;;;;19.93;69.08;100682.47;7385298;19;1390;-51
2023/04/18 06:41:22;;;;;;;;;;;;;;;19.96;69.41;100669.59;7387041;19;1525;-51
2023/04/18 06:43:50;;;;;;;;;;;;;;;19.73;70.54;100693.19;7385921;19;1396;-52
2023/04/18 06:46:18;;;;;;;;;;;;;;;19.60;70.92;100684.59;7386681;19;1374;-52
2023/04/18 06:48:47;;;;;;;;;;;;;;;19.62;70.88;100690.66;7389574;19;1256;-51
2023/04/18 06:51:15;;;;;;;;;;;;;;;19.73;70.69;100701.25;7390452;19;1925;-52
2023/04/18 06:53:44;;;;;;;;;;;;;;;19.76;70.34;100676.84;7390986;19;1622;-51
2023/04/18 06:56:15;;;;;;;;;;;;;;;19.79;70.86;100689.94;7392284;19;1292;-51
2023/04/18 06:58:44;;;;;;;;;;;;;;;19.86;70.28;100695.63;7393808;19;1513;-52
2023/04/18 07:01:12;;;;;;;;;;;;;;;19.77;70.69;100689.25;7390797;19;1888;-52
2023/04/18 07:03:40;;;;;;;;;;;;;;;19.73;70.85;100690.53;7394394;19;1497;-52
2023/04/18 07:06:10;;;;;;;;;;;;;;;19.71;70.85;100687.13;7397683;19;1214;-52
2023/04/18 07:08:39;;;;;;;;;;;;;;;19.77;70.66;100699.97;7397581;19;1047;-52
2023/04/18 07:11:07;;;;;;;;;;;;;;;19.70;70.92;100696.16;7395893;19;1469;-52
2023/04/18 07:13:38;;;;;;;;;;;;;;;19.75;71.13;100696.59;7395860;19;1499;-51
2023/04/18 07:16:07;;;;;;;;;;;;;;;19.51;71.78;100713.06;7397032;19;1628;-52
2023/04/18 07:18:35;;;;;;;;;;;;;;;19.56;71.37;100710.84;7394601;19;1469;-53
2023/04/18 07:21:06;;;;;;;;;;;;;;;19.35;72.25;100719.00;7391585;19;1841;-52
2023/04/18 07:23:34;;;;;;;;;;;;;;;19.49;68.22;100709.69;7395509;19;1477;-51
2023/04/18 07:26:04;;;;;;;;;;;;;;;19.40;66.83;100721.28;7393244;19;1616;-50
2023/04/18 07:28:33;;;;;;;;;;;;;;;19.51;65.63;100722.97;7392644;19;1432;-51
2023/04/18 07:31:05;;;;;;;;;;;;;;;19.36;68.33;100720.69;7395600;19;1635;-53
2023/04/18 07:33:35;;;;;;;;;;;;;;;19.57;68.98;100722.41;7394155;19;1485;-52
2023/04/18 07:36:03;;;;;;;;;;;;;;;19.63;67.92;100727.19;7394657;19;1465;-52
2023/04/18 07:38:32;;;;;;;;;;;;;;;18.88;69.85;100627.66;7392017;19;1341;-53
2023/04/18 07:41:01;;;;;;;;;;;;;;;19.31;69.23;100717.56;7391907;19;1856;-52
2023/04/18 07:43:30;;;;;;;;;;;;;;;19.29;69.74;100727.59;7394026;19;1478;-52
2023/04/18 07:45:58;;;;;;;;;;;;;;;19.44;69.92;100734.25;7395864;19;1817;-52
2023/04/18 07:48:29;;;;;;;;;;;;;;;19.50;69.50;100731.97;7396132;19;1888;-51
2023/04/18 07:50:57;;;;;;;;;;;;;;;19.39;68.86;100733.81;7392443;19;1453;-52
2023/04/18 07:53:25;;;;;;;;;;;;;;;19.17;70.05;100751.00;7392779;19;1315;-52
2023/04/18 07:55:54;;;;;;;;;;;;;;;19.03;70.89;100740.66;7393967;19;1378;-52
2023/04/18 07:58:22;;;;;;;;;;;;;;;19.20;69.31;100737.31;7394016;19;1551;-53
2023/04/18 08:00:50;;;;;;;;;;;;;;;19.25;69.80;100728.84;7390330;19;1845;-52
2023/04/18 08:03:19;;;;;;;;;;;;;;;19.03;70.37;100712.00;7394133;19;1252;-52
2023/04/18 08:05:50;;;;;;;;;;;;;;;19.33;68.92;100710.25;7394045;19;1509;-52
2023/04/18 08:08:19;;;;;;;;;;;;;;;19.46;68.57;100724.25;7395060;19;1560;-53
2023/04/18 08:10:47;;;;;;;;;;;;;;;19.53;68.51;100737.94;7392278;19;1626;-55
2023/04/18 08:13:16;;;;;;;;;;;;;;;19.50;68.46;100718.56;7394581;19;1584;-55
2023/04/18 08:15:45;;;;;;;;;;;;;;;19.50;68.69;100732.84;7394031;19;1307;-55
2023/04/18 08:18:13;;;;;;;;;;;;;;;19.45;69.12;100725.22;7394511;19;1516;-55
2023/04/18 08:20:41;;;;;;;;;;;;;;;19.47;69.13;100717.88;7394135;19;1869;-55
2023/04/18 08:23:13;;;;;;;;;;;;;;;19.47;69.02;100735.81;7395297;19;1572;-55
2023/04/18 08:25:41;;;;;;;;;;;;;;;19.46;69.15;100734.13;7395941;19;1081;-55
2023/04/18 08:28:10;;;;;;;;;;;;;;;19.51;68.95;100733.69;7393258;19;1679;-54
2023/04/18 08:30:38;;;;;;;;;;;;;;;19.42;69.05;100730.88;7394833;19;1584;-55
2023/04/18 08:33:09;;;;;;;;;;;;;;;19.43;69.29;100721.81;7388347;19;1264;-55
2023/04/18 08:35:38;;;;;;;;;;;;;;;19.46;69.18;100734.97;7392260;19;1829;-55
2023/04/18 08:38:06;;;;;;;;;;;;;;;19.45;69.09;100735.94;7392761;19;1828;-55
2023/04/18 08:40:38;;;;;;;;;;;;;;;19.41;69.56;100728.31;7391522;19;1861;-55
2023/04/18 08:43:08;;;;;;;;;;;;;;;19.42;69.48;100720.13;7394461;19;1492;-55
2023/04/18 08:45:37;;;;;;;;;;;;;;;19.46;69.43;100726.91;7392301;19;1160;-55
2023/04/18 08:48:06;;;;;;;;;;;;;;;19.42;69.64;100722.81;7394373;19;1454;-55
2023/04/18 08:50:35;;;;;;;;;;;;;;;19.43;69.49;100719.13;7393111;19;1474;-55
2023/04/18 08:53:03;;;;;;;;;;;;;;;19.45;69.62;100719.00;7393368;19;1615;-55
2023/04/18 08:55:32;;;;;;;;;;;;;;;19.35;70.22;100727.03;7393352;19;1829;-55
2023/04/18 08:58:04;;;;;;;;;;;;;;;19.34;69.84;100720.00;7394091;19;1513;-55
2023/04/18 09:00:32;;;;;;;;;;;;;;;19.34;69.94;100703.03;7392630;19;1854;-55
2023/04/18 09:03:02;;;;;;;;;;;;;;;19.42;69.37;100712.09;7396631;19;1243;-55
2023/04/18 09:05:30;;;;;;;;;;;;;;;19.32;69.85;100730.00;7401785;19;1604;-55
2023/04/18 09:07:58;;;;;;;;;;;;;;;19.34;70.13;100721.81;7400617;19;1171;-55
2023/04/18 09:10:28;;;;;;;;;;;;;;;19.27;70.46;100726.88;7401373;19;1576;-55
2023/04/18 09:12:57;;;;;;;;;;;;;;;18.87;71.08;100735.81;7396871;19;1639;-55
2023/04/18 09:15:28;;;;;;;;;;;;;;;18.99;71.13;100726.66;7400199;19;1596;-55
2023/04/18 09:17:58;;;;;;;;;;;;;;;19.27;70.22;100721.53;7394661;19;1381;-55
2023/04/18 09:20:34;;;;;;;;;;;;;;;19.31;69.92;100717.56;7399619;19;1859;-55
2023/04/18 09:23:03;;;;;;;;;;;;;;;19.28;69.90;100731.28;7398978;19;1235;-56
2023/04/18 09:25:33;;;;;;;;;;;;;;;19.35;70.15;100734.25;7397411;19;1664;-54
2023/04/18 09:28:02;;;;;;;;;;;;;;;19.30;70.23;100721.25;7396998;19;1453;-55
2023/04/18 09:30:38;;;;;;;;;;;;;;;19.29;70.20;100751.72;7397878;19;1409;-55
2023/04/18 09:33:08;;;;;;;;;;;;;;;19.32;69.90;100724.66;7398290;19;1381;-56
2023/04/18 09:35:36;;;;;;;;;;;;;;;19.04;70.25;100727.13;7397425;19;1335;-55
2023/04/18 09:38:05;;;;;;;;;;;;;;;18.85;70.10;100732.41;7399632;19;1202;-53
2023/04/18 09:40:33;;;;;;;;;;;;;;;18.89;69.86;100733.84;7399635;19;1881;-52
2023/04/18 09:43:02;;;;;;;;;;;;;;;19.25;68.55;100731.53;7396717;19;1153;-52
2023/04/18 09:45:30;;;;;;;;;;;;;;;19.32;68.26;100724.66;7399541;19;1549;-52
2023/04/18 09:48:01;;;;;;;;;;;;;;;19.38;68.30;100718.72;7397945;19;1881;-52
2023/04/18 09:50:30;;;;;;;;;;;;;;;19.27;68.97;100716.16;7399586;19;1549;-53
2023/04/18 09:52:58;;;;;;;;;;;;;;;18.96;70.39;100708.19;7398972;19;1334;-53
2023/04/18 09:55:28;;;;;;;;;;;;;;;19.07;70.26;100715.28;7396778;19;1128;-54
2023/04/18 09:57:57;;;;;;;;;;;;;;;19.09;69.83;100718.66;7399467;19;1477;-53
2023/04/18 10:00:26;;;;;;;;;;;;;;;19.17;69.96;100721.50;7397614;19;1866;-53
2023/04/18 10:02:58;;;;;;;;;;;;;;;19.02;70.50;100729.09;7397330;19;1191;-53
2023/04/18 10:05:29;;;;;;;;;;;;;;;19.19;69.99;100724.03;7397106;19;1516;-54
2023/04/18 10:07:58;;;;;;;;;;;;;;;19.27;69.85;100716.16;7396162;19;1370;-55
2023/04/18 10:10:27;;;;;;;;;;;;;;;19.25;69.84;100713.59;7396653;19;1378;-52
2023/04/18 10:12:56;;;;;;;;;;;;;;;19.01;70.50;100732.75;7396923;19;1813;-53
2023/04/18 10:15:26;;;;;;;;;;;;;;;19.17;70.60;100715.31;7394674;19;1734;-52
2023/04/18 10:17:55;;;;;;;;;;;;;;;19.15;70.70;100720.78;7398388;19;1552;-53
2023/04/18 10:20:25;;;;;;;;;;;;;;;19.07;70.70;100726.00;7397823;19;1842;-53
2023/04/18 10:22:56;;;;;;;;;;;;;;;19.11;70.51;100726.56;7398219;19;1477;-53
2023/04/18 10:25:39;;;;;;;;;;;;;;;19.08;70.72;100725.88;7397522;19;1457;-53
2023/04/18 10:28:08;;;;;;;;;;;;;;;19.12;70.67;100713.03;7394784;19;1473;-54
2023/04/18 10:30:53;;;;;;;;;;;;;;;19.18;70.41;100719.66;7399032;19;1639;-53
2023/04/18 10:33:23;;;;;;;;;;;;;;;19.15;70.79;100714.59;7394149;19;1437;-53
2023/04/18 10:35:58;;;;;;;;;;;;;;;19.07;71.04;100721.47;7396367;19;1212;-53
2023/04/18 10:38:29;;;;;;;;;;;;;;;18.93;71.41;100724.53;7397466;19;1516;-53
2023/04/18 10:41:12;;;;;;;;;;;;;;;18.99;71.30;100709.75;7398226;19;1864;-53
2023/04/18 10:43:55;;;;;;;;;;;;;;;18.87;71.69;100714.38;7396557;19;1524;-52
2023/04/18 10:46:23;;;;;;;;;;;;;;;19.01;71.45;100713.16;7394162;19;1493;-53
2023/04/18 10:49:12;;;;;;;;;;;;;;;18.89;71.61;100715.06;7394013;19;1167;-53
2023/04/18 10:51:40;;;;;;;;;;;;;;;18.78;72.17;100716.00;7394315;19;1232;-51
2023/04/18 10:54:12;;;;;;;;;;;;;;;18.81;71.83;100709.56;7395138;19;1068;-51
2023/04/18 10:56:41;;;;;;;;;;;;;;;18.80;71.87;100708.72;7392270;19;1231;-51
2023/04/18 10:59:11;;;;;;;;;;;;;;;19.01;71.67;100708.63;7391795;19;2129;-51
2023/04/18 11:01:39;;;;;;;;;;;;;;;18.98;71.44;100706.22;7396954;19;1866;-51
2023/04/18 11:04:12;;;;;;;;;;;;;;;19.08;71.28;100706.25;7396371;19;1599;-50
2023/04/18 11:06:51;;;;;;;;;;;;;;;18.97;71.75;100707.19;7396823;19;1548;-51
2023/04/18 11:09:22;;;;;;;;;;;;;;;18.96;71.57;100701.97;7397636;19;1434;-51
2023/04/18 11:12:04;;;;;;;;;;;;;;;19.09;71.07;100713.31;7395499;19;1156;-51
2023/04/18 11:14:40;;;;;;;;;;;;;;;19.12;71.01;100715.72;7395208;19;1453;-51
2023/04/18 11:17:19;;;;;;;;;;;;;;;19.01;71.67;100703.25;7394388;19;1485;-51
2023/04/18 11:19:47;;;;;;;;;;;;;;;19.01;71.66;100713.16;7392757;19;1366;-51
2023/04/18 11:22:16;;;;;;;;;;;;;;;19.02;71.64;100712.16;7392268;19;1854;-52
2023/04/18 11:24:47;;;;;;;;;;;;;;;18.91;72.13;100706.91;7395692;19;1065;-52
2023/04/18 11:27:15;;;;;;;;;;;;;;;18.67;72.09;100722.28;7391075;19;1543;-52
2023/04/18 11:29:43;;;;;;;;;;;;;;;18.83;71.83;100716.47;7396726;19;1255;-52
2023/04/18 11:32:11;;;;;;;;;;;;;;;18.98;71.80;100722.31;7395628;19;1636;-52
2023/04/18 11:34:40;;;;;;;;;;;;;;;19.02;72.01;100718.38;7395096;19;1434;-52
2023/04/18 11:37:09;;;;;;;;;;;;;;;18.79;72.41;100716.84;7396129;19;1278;-53
2023/04/18 11:39:37;;;;;;;;;;;;;;;18.71;72.62;100725.56;7396937;19;1647;-51
2023/04/18 11:42:08;;;;;;;;;;;;;;;18.74;72.99;100716.38;7393636;19;1845;-49
2023/04/18 11:44:38;;;;;;;;;;;;;;;19.02;71.88;100729.09;7393437;19;1227;-50
2023/04/18 11:47:08;;;;;;;;;;;;;;;19.83;69.15;100703.94;7393399;19;1239;-49
2023/04/18 11:49:36;;;;;;;;;;;;;;;20.37;67.27;100709.63;7392187;19;1187;-49
2023/04/18 11:52:12;;;;;;;;;;;;;;;20.46;67.27;100704.22;7391964;19;1425;-48
2023/04/18 11:54:41;;;;;;;;;;;;;;;20.70;66.72;100699.38;7394758;19;1247;-49
2023/04/18 11:57:20;;;;;;;;;;;;;;;20.40;66.26;100636.84;7395959;19;1458;-50
2023/04/18 11:59:56;;;;;;;;;;;;;;;20.84;66.70;100697.03;7393770;19;1517;-49
2023/04/18 12:02:25;;;;;;;;;;;;;;;20.75;66.79;100707.81;7390483;19;1857;-50
2023/04/18 12:04:57;;;;;;;;;;;;;;;20.68;67.17;100696.81;7392121;19;1603;-47
2023/04/18 12:07:32;;;;;;;;;;;;;;;20.65;67.27;100702.47;7393593;19;1291;-48
2023/04/18 12:10:00;;;;;;;;;;;;;;;20.73;67.11;100675.75;7393663;19;1494;-48
2023/04/18 12:12:31;;;;;;;;;;;;;;;20.66;67.37;100683.53;7392804;19;1496;-50
2023/04/18 12:15:00;;;;;;;;;;;;;;;20.70;67.32;100688.63;7394263;19;1461;-49
2023/04/18 12:17:29;;;;;;;;;;;;;;;20.70;67.41;100694.00;7391060;19;1402;-52
2023/04/18 12:19:58;;;;;;;;;;;;;;;20.73;67.33;100689.19;7394472;19;1387;-47
2023/04/18 12:22:40;;;;;;;;;;;;;;;20.77;67.19;100684.31;7391642;19;1834;-49
2023/04/18 12:25:21;;;;;;;;;;;;;;;20.82;67.19;100693.63;7394088;19;1366;-48
2023/04/18 12:27:56;;;;;;;;;;;;;;;20.88;67.24;100692.19;7392991;19;1082;-48
2023/04/18 12:30:25;;;;;;;;;;;;;;;20.81;67.25;100691.09;7394937;19;1552;-47
2023/04/18 12:32:55;;;;;;;;;;;;;;;20.87;67.24;100690.53;7394597;19;1457;-53
2023/04/18 12:35:24;;;;;;;;;;;;;;;20.83;67.18;100689.09;7393519;19;1992;-53
2023/04/18 12:37:53;;;;;;;;;;;;;;;20.91;67.28;100678.47;7391697;19;1936;-53
2023/04/18 12:40:22;;;;;;;;;;;;;;;21.00;66.94;100676.72;7391279;19;1457;-53
2023/04/18 12:42:51;;;;;;;;;;;;;;;21.04;66.89;100681.63;7390580;19;1846;-52
2023/04/18 12:45:23;;;;;;;;;;;;;;;20.95;67.10;100668.25;7393057;19;1492;-52
2023/04/18 12:47:52;;;;;;;;;;;;;;;20.96;66.60;100678.00;7390137;19;1323;-53
2023/04/18 12:50:21;;;;;;;;;;;;;;;20.94;66.89;100680.84;7389841;19;1176;-53
2023/04/18 12:52:49;;;;;;;;;;;;;;;20.93;67.30;100673.78;7390069;19;1496;-53
2023/04/18 12:55:17;;;;;;;;;;;;;;;21.02;67.18;100672.03;7392345;19;1145;-53
2023/04/18 12:57:46;;;;;;;;;;;;;;;20.93;67.28;100668.41;7392396;19;1429;-54
2023/04/18 13:00:14;;;;;;;;;;;;;;;20.96;67.51;100678.84;7393006;19;1398;-53